Time;durP1;ratioP1;P1;durP2;ratioP2;P2;SDS_P1;SDS_P2;PMS_P1;PMS_P2;Temp;Humidity;BMP_temperature;BMP_pressure;BME280_temperature;BME280_humidity;BME280_pressure;Samples;Min_cycle;Max_cycle;Signal;HPM_P1;HPM_P2
2021/04/04 00:00:29;;;;;;;81.30;28.20;;;;;;;0.45;76.29;99033.73;1749190;81;21046;-72
2021/04/04 00:02:56;;;;;;;57.67;21.50;;;;;;;0.48;76.00;99032.67;1749160;82;21160;-72
2021/04/04 00:05:24;;;;;;;60.60;23.15;;;;;;;0.52;76.32;99037.02;1749192;82;21085;-73
2021/04/04 00:07:53;;;;;;;63.02;22.60;;;;;;;0.57;76.00;99036.50;1749331;81;21065;-72
2021/04/04 00:10:20;;;;;;;52.05;19.15;;;;;;;0.59;75.61;99032.97;1749369;82;22142;-72
2021/04/04 00:12:47;;;;;;;46.83;17.42;;;;;;;0.61;75.39;99030.81;1749030;81;21215;-72
2021/04/04 00:15:16;;;;;;;38.67;16.17;;;;;;;0.64;75.17;99028.94;1749180;82;21137;-72
2021/04/04 00:17:43;;;;;;;41.08;17.27;;;;;;;0.66;74.76;99032.19;1749396;81;21533;-72
2021/04/04 00:20:16;;;;;;;41.70;16.75;;;;;;;0.63;74.68;99023.26;1749267;81;20921;-71
2021/04/04 00:22:44;;;;;;;42.60;16.52;;;;;;;0.65;74.52;99027.05;1749340;81;21216;-71
2021/04/04 00:25:13;;;;;;;45.70;17.25;;;;;;;0.66;74.29;99033.54;1719719;82;21002;-71
2021/04/04 00:27:41;;;;;;;49.67;16.80;;;;;;;0.65;74.15;99031.91;1749285;82;21265;-71
2021/04/04 00:30:14;;;;;;;44.70;17.92;;;;;;;0.63;74.32;99032.72;1749152;82;21002;-71
2021/04/04 00:32:41;;;;;;;49.03;17.42;;;;;;;0.57;74.12;99039.73;1749283;82;21728;-72
2021/04/04 00:35:15;;;;;;;49.35;17.50;;;;;;;0.55;74.04;99035.14;1749084;82;22423;-71
2021/04/04 00:37:45;;;;;;;45.20;16.60;;;;;;;0.55;73.65;99031.89;1749255;82;21057;-71
2021/04/04 00:40:17;;;;;;;41.83;17.25;;;;;;;0.49;73.65;99032.13;1749225;82;21018;-71
2021/04/04 00:42:45;;;;;;;48.80;17.20;;;;;;;0.44;74.07;99028.87;1749244;82;21675;-72
2021/04/04 00:45:31;;;;;;;51.65;18.82;;;;;;;0.43;73.80;99033.99;1749248;81;21034;-71
2021/04/04 00:47:59;;;;;;;40.40;17.35;;;;;;;0.33;73.48;99028.53;1749372;81;21599;-72
2021/04/04 00:50:30;;;;;;;62.03;20.12;;;;;;;0.25;73.95;99026.33;1749076;81;21038;-72
2021/04/04 00:52:58;;;;;;;45.98;16.90;;;;;;;0.22;73.89;99026.84;1749410;82;21014;-73
2021/04/04 00:55:26;;;;;;;56.83;19.37;;;;;;;0.15;74.13;99031.13;1749141;81;21201;-73
2021/04/04 00:57:55;;;;;;;45.83;17.07;;;;;;;0.09;74.87;99028.11;1749293;82;21077;-72
2021/04/04 01:00:25;;;;;;;47.35;17.23;;;;;;;0.12;75.36;99031.64;1749219;82;21341;-72
2021/04/04 01:05:36;;;;;;;49.10;17.45;;;;;;;0.20;76.24;99027.11;1889827;76;22648;-70
2021/04/04 01:08:05;;;;;;;43.95;15.30;;;;;;;0.16;76.27;99034.63;1860762;77;21026;-70
2021/04/04 01:10:37;;;;;;;44.58;16.10;;;;;;;0.15;76.40;99030.31;1860758;77;21354;-70
2021/04/04 01:13:50;;;;;;;46.68;17.37;;;;;;;0.16;76.29;99030.59;1860587;77;20967;-70
2021/04/04 01:16:29;;;;;;;40.50;15.88;;;;;;;0.13;76.13;99033.80;1860656;77;21030;-72
2021/04/04 01:19:02;;;;;;;42.67;15.80;;;;;;;0.10;76.25;99029.73;1860665;77;21039;-72
2021/04/04 01:21:45;;;;;;;39.67;15.23;;;;;;;0.07;76.42;99023.51;1860831;77;21458;-72
2021/04/04 01:24:22;;;;;;;37.13;13.83;;;;;;;0.05;76.84;99027.54;1831428;77;21567;-72
2021/04/04 01:27:12;;;;;;;41.42;13.62;;;;;;;0.02;76.90;99031.57;1860635;77;21473;-72
2021/04/04 01:29:41;;;;;;;39.78;14.80;;;;;;;-0.01;77.47;99033.47;1860703;77;20927;-71
2021/04/04 01:32:09;;;;;;;36.83;15.03;;;;;;;0.01;77.77;99029.94;1860610;77;21660;-71
2021/04/04 01:34:37;;;;;;;31.20;13.22;;;;;;;0.01;77.51;99033.99;1860758;77;20963;-71
2021/04/04 01:37:08;;;;;;;34.58;13.38;;;;;;;0.05;77.56;99036.98;1860673;77;22647;-71
2021/04/04 01:39:41;;;;;;;40.95;12.93;;;;;;;0.06;77.64;99035.38;1828196;77;20975;-71
2021/04/04 01:42:10;;;;;;;35.52;13.15;;;;;;;0.09;78.01;99034.05;1860492;77;20963;-70
2021/04/04 01:44:38;;;;;;;40.10;13.62;;;;;;;0.12;78.48;99032.99;1860589;77;20995;-70
2021/04/04 01:47:06;;;;;;;33.18;13.40;;;;;;;0.13;78.27;99023.01;1860577;77;21049;-70
2021/04/04 01:49:34;;;;;;;38.05;13.70;;;;;;;0.08;78.20;99020.28;1860542;77;21785;-71
2021/04/04 01:52:01;;;;;;;30.90;11.78;;;;;;;0.03;78.29;99026.98;1860622;77;22333;-71
2021/04/04 01:54:31;;;;;;;42.83;15.55;;;;;;;-0.05;78.73;99027.77;1860685;77;20935;-70
2021/04/04 01:56:58;;;;;;;31.73;15.38;;;;;;;-0.14;78.92;99037.95;1822685;78;20973;-70
2021/04/04 01:59:26;;;;;;;33.95;13.30;;;;;;;-0.23;78.90;99039.50;1790392;80;21115;-70
2021/04/04 02:01:53;;;;;;;32.73;14.13;;;;;;;-0.31;79.02;99035.39;1822871;78;21357;-70
2021/04/04 02:04:21;;;;;;;35.68;14.68;;;;;;;-0.37;79.10;99032.37;1840572;77;21123;-70
2021/04/04 02:06:49;;;;;;;34.92;13.95;;;;;;;-0.43;79.37;99038.26;1757678;79;21449;-70
2021/04/04 02:09:17;;;;;;;38.42;15.60;;;;;;;-0.48;79.70;99042.79;1822481;78;20942;-69
2021/04/04 02:11:46;;;;;;;36.73;14.68;;;;;;;-0.53;80.12;99043.55;1822455;78;21219;-72
2021/04/04 02:14:16;;;;;;;39.45;14.28;;;;;;;-0.53;80.29;99038.70;1822406;78;21368;-72
2021/04/04 02:16:47;;;;;;;52.23;19.02;;;;;;;-0.54;80.17;99046.50;1821855;78;21018;-71
2021/04/04 02:19:17;;;;;;;41.23;15.83;;;;;;;-0.57;81.41;99047.02;1821871;78;20986;-71
2021/04/04 02:21:50;;;;;;;47.27;16.55;;;;;;;-0.56;81.74;99043.25;1809978;78;20992;-70
2021/04/04 02:24:21;;;;;;;46.60;18.32;;;;;;;-0.55;81.68;99054.31;1789479;80;21196;-72
2021/04/04 02:26:51;;;;;;;40.90;16.65;;;;;;;-0.56;81.55;99045.41;1761607;80;22333;-73
2021/04/04 02:29:19;;;;;;;47.73;20.05;;;;;;;-0.60;81.63;99048.91;1789448;80;21004;-72
2021/04/04 02:31:54;;;;;;;60.55;21.62;;;;;;;-0.59;83.34;99058.08;1789641;80;20991;-71
2021/04/04 02:34:25;;;;;;;54.90;20.20;;;;;;;-0.62;82.83;99059.12;1789525;80;21035;-71
2021/04/04 02:36:52;;;;;;;61.40;23.05;;;;;;;-0.69;82.67;99056.63;1789669;80;20973;-70
2021/04/04 02:39:27;;;;;;;48.78;19.90;;;;;;;-0.68;83.24;99063.66;1760852;80;21887;-70
2021/04/04 02:41:56;;;;;;;43.45;18.00;;;;;;;-0.70;83.26;99067.95;1789561;79;20988;-71
2021/04/04 02:44:25;;;;;;;36.83;16.12;;;;;;;-0.70;83.39;99064.44;1789542;80;21044;-71
2021/04/04 02:47:04;;;;;;;44.18;16.00;;;;;;;-0.67;83.94;99065.28;1789409;80;21035;-71
2021/04/04 02:49:34;;;;;;;43.13;17.52;;;;;;;-0.62;84.15;99063.17;1790925;78;21038;-69
2021/04/04 02:52:06;;;;;;;32.78;14.05;;;;;;;-0.64;84.07;99065.31;1792002;79;21356;-70
2021/04/04 02:54:36;;;;;;;37.10;15.98;;;;;;;-0.63;84.37;99066.94;1792127;79;21042;-70
2021/04/04 02:57:05;;;;;;;34.73;15.55;;;;;;;-0.59;84.76;99066.70;1795313;78;21058;-70
2021/04/04 02:59:39;;;;;;;40.28;15.95;;;;;;;-0.57;85.00;99073.98;1790142;79;20998;-69
2021/04/04 03:02:06;;;;;;;;;;;;;;;-0.55;85.17;99074.00;1792251;80;21532;-69
2021/04/04 03:04:36;;;;;;;29.55;12.50;;;;;;;-0.50;85.71;99077.28;1787403;79;21204;-70
2021/04/04 03:07:09;;;;;;;27.87;10.95;;;;;;;-0.45;86.24;99075.45;1783634;79;21006;-69
2021/04/04 03:09:39;;;;;;;34.58;12.43;;;;;;;-0.41;86.47;99079.80;1783713;80;20994;-69
2021/04/04 03:12:07;;;;;;;24.47;11.12;;;;;;;-0.34;86.76;99079.05;1783750;80;21584;-69
2021/04/04 03:14:36;;;;;;;29.35;10.45;;;;;;;-0.30;86.52;99082.05;1783766;79;21141;-69
2021/04/04 03:17:04;;;;;;;23.65;9.95;;;;;;;-0.28;86.54;99080.73;1783584;80;21212;-69
2021/04/04 03:19:33;;;;;;;25.37;9.68;;;;;;;-0.25;86.44;99083.45;1783576;80;21484;-70
2021/04/04 03:22:01;;;;;;;30.37;10.30;;;;;;;-0.24;86.54;99080.50;1753496;80;20943;-69
2021/04/04 03:24:29;;;;;;;25.72;11.03;;;;;;;-0.21;86.74;99084.56;1783532;80;20954;-72
2021/04/04 03:26:57;;;;;;;24.25;12.07;;;;;;;-0.19;87.17;99083.24;1753325;80;21482;-70
2021/04/04 03:29:24;;;;;;;30.95;11.05;;;;;;;-0.14;87.12;99085.17;1783604;80;21203;-72
2021/04/04 03:31:52;;;;;;;26.95;11.48;;;;;;;-0.11;87.12;99093.56;1783660;80;20942;-70
2021/04/04 03:34:21;;;;;;;27.13;10.65;;;;;;;-0.10;87.09;99088.45;1783301;80;21025;-70
2021/04/04 03:36:49;;;;;;;27.82;11.10;;;;;;;-0.09;87.14;99090.08;1783695;79;20914;-70
2021/04/04 03:39:17;;;;;;;28.80;10.90;;;;;;;-0.03;89.09;99094.45;1757770;80;21172;-71
2021/04/04 03:41:44;;;;;;;22.67;10.50;;;;;;;0.06;89.84;99092.59;1783738;80;21219;-69
2021/04/04 03:44:12;;;;;;;25.95;10.63;;;;;;;0.14;91.10;99098.33;1753350;80;21489;-69
2021/04/04 03:46:40;;;;;;;24.75;9.95;;;;;;;0.23;91.18;99104.06;1783673;80;21049;-69
2021/04/04 03:49:08;;;;;;;23.60;10.18;;;;;;;0.23;90.63;99106.22;1783674;79;21481;-71
2021/04/04 03:51:36;;;;;;;26.15;10.40;;;;;;;0.21;90.34;99101.62;1783528;80;21138;-70
2021/04/04 03:54:05;;;;;;;24.52;9.78;;;;;;;0.21;90.65;99100.80;1783771;80;21151;-70
2021/04/04 03:56:35;;;;;;;24.92;10.53;;;;;;;0.20;90.83;99095.13;1753676;80;21118;-71
2021/04/04 03:59:08;;;;;;;28.70;10.90;;;;;;;0.21;90.91;99100.80;1753450;80;20889;-72
2021/04/04 04:01:38;;;;;;;23.60;9.95;;;;;;;0.22;90.80;99103.78;1783625;80;21023;-70
2021/04/04 04:04:08;;;;;;;26.30;9.85;;;;;;;0.24;91.04;99107.84;1784040;79;20995;-71
2021/04/04 04:06:38;;;;;;;23.55;9.48;;;;;;;0.29;91.36;99105.73;1798015;79;22287;-71
2021/04/04 04:09:07;;;;;;;20.65;9.45;;;;;;;0.33;91.41;99114.94;1769644;79;21125;-71
2021/04/04 04:11:38;;;;;;;19.95;8.90;;;;;;;0.38;91.48;99116.32;1797831;79;20967;-71
2021/04/04 04:14:06;;;;;;;27.05;10.13;;;;;;;0.43;91.57;99108.25;1768891;79;21026;-71
2021/04/04 04:16:36;;;;;;;26.60;10.28;;;;;;;0.52;91.80;99118.84;1769602;79;20999;-71
2021/04/04 04:19:05;;;;;;;19.10;8.68;;;;;;;0.63;92.32;99122.39;1797825;79;22229;-71
2021/04/04 04:21:33;;;;;;;16.77;7.95;;;;;;;0.74;92.58;99118.69;1797754;79;20939;-71
2021/04/04 04:24:03;;;;;;;18.77;8.58;;;;;;;0.83;92.32;99116.30;1797719;79;20952;-71
2021/04/04 04:26:32;;;;;;;18.40;6.83;;;;;;;0.89;92.22;99115.25;1743240;79;21193;-71
2021/04/04 04:29:01;;;;;;;17.57;6.17;;;;;;;0.93;92.13;99121.75;1767766;79;21193;-71
2021/04/04 04:31:32;;;;;;;14.80;6.65;;;;;;;0.98;92.10;99128.00;1796120;79;21384;-71
2021/04/04 04:34:00;;;;;;;14.87;7.80;;;;;;;1.07;92.11;99128.31;1796119;79;21368;-70
2021/04/04 04:36:27;;;;;;;14.43;6.55;;;;;;;1.19;92.20;99131.58;1795989;79;22214;-71
2021/04/04 04:38:55;;;;;;;19.70;7.62;;;;;;;1.30;92.17;99127.84;1796117;79;21200;-71
2021/04/04 04:41:23;;;;;;;15.53;6.17;;;;;;;1.39;91.95;99138.14;1797369;79;21066;-71
2021/04/04 04:43:56;;;;;;;13.28;6.10;;;;;;;1.45;91.79;99133.02;1797719;79;21206;-72
2021/04/04 04:46:25;;;;;;;15.40;7.25;;;;;;;1.49;91.68;99140.34;1769274;79;21050;-72
2021/04/04 04:48:52;;;;;;;11.15;5.20;;;;;;;1.57;91.65;99146.59;1797946;79;21514;-71
2021/04/04 04:51:21;;;;;;;11.78;6.37;;;;;;;1.64;91.50;99148.50;1803385;78;21618;-72
2021/04/04 04:53:50;;;;;;;11.80;6.25;;;;;;;1.70;91.23;99139.05;1811504;79;21128;-82
2021/04/04 04:56:17;;;;;;;9.73;5.28;;;;;;;1.79;91.48;99145.52;1823595;77;21359;-74
2021/04/04 04:58:45;;;;;;;11.50;5.17;;;;;;;1.88;91.44;99140.67;1784738;79;20993;-70
2021/04/04 05:01:17;;;;;;;10.95;5.33;;;;;;;1.94;91.04;99136.89;1762100;79;21020;-67
2021/04/04 05:03:44;;;;;;;8.80;5.25;;;;;;;1.97;90.57;99137.70;1790042;80;21171;-72
2021/04/04 05:06:12;;;;;;;11.95;4.80;;;;;;;1.99;90.47;99143.66;1781798;80;21104;-69
2021/04/04 05:08:45;;;;;;;9.08;4.90;;;;;;;2.05;90.52;99147.73;1779786;80;22252;-67
2021/04/04 05:11:15;;;;;;;10.10;5.28;;;;;;;2.12;90.30;99150.98;1779480;80;21167;-69
2021/04/04 05:13:43;;;;;;;10.95;5.00;;;;;;;2.19;90.13;99158.30;1779800;80;21104;-67
2021/04/04 05:16:13;;;;;;;13.93;6.17;;;;;;;2.23;89.67;99159.39;1779689;80;21195;-72
2021/04/04 05:18:49;;;;;;;10.88;5.10;;;;;;;2.25;89.44;99161.28;1779783;80;21211;-67
2021/04/04 05:21:26;;;;;;;10.63;5.28;;;;;;;2.29;89.37;99158.31;1779652;80;22344;-68
2021/04/04 05:23:57;;;;;;;11.83;5.92;;;;;;;2.35;89.31;99159.91;1755968;80;21567;-71
2021/04/04 05:26:29;;;;;;;15.45;5.80;;;;;;;2.40;88.91;99159.09;1779945;80;21163;-69
2021/04/04 05:29:04;;;;;;;11.30;5.60;;;;;;;2.45;88.57;99154.48;1779613;80;21069;-69
2021/04/04 05:31:31;;;;;;;11.48;5.78;;;;;;;2.49;88.62;99155.56;1779521;80;21171;-70
2021/04/04 05:34:00;;;;;;;9.33;5.62;;;;;;;2.53;88.60;99159.90;1779311;80;21151;-71
2021/04/04 05:36:28;;;;;;;9.98;5.25;;;;;;;2.54;88.35;99160.98;1778418;80;21671;-68
2021/04/04 05:38:57;;;;;;;9.98;6.00;;;;;;;2.55;88.38;99169.92;1772554;80;20967;-71
2021/04/04 05:41:25;;;;;;;11.80;5.78;;;;;;;2.58;88.54;99162.60;1772737;81;21133;-71
2021/04/04 05:43:57;;;;;;;9.35;5.17;;;;;;;2.67;88.71;99165.03;1791729;80;21128;-71
2021/04/04 05:46:34;;;;;;;8.33;4.80;;;;;;;2.73;88.25;99168.55;1789419;79;21343;-71
2021/04/04 05:49:07;;;;;;;8.65;4.00;;;;;;;2.78;88.29;99166.64;1789562;79;21630;-70
2021/04/04 05:51:58;;;;;;;9.65;4.67;;;;;;;2.89;88.82;99172.83;1758994;79;21156;-72
2021/04/04 05:55:04;;;;;;;6.45;4.28;;;;;;;3.06;89.31;99173.88;1828269;78;28278;-69
2021/04/04 05:57:49;;;;;;;7.08;4.00;;;;;;;3.25;88.83;99171.66;1790994;80;21140;-69
2021/04/04 06:00:17;;;;;;;8.35;3.55;;;;;;;3.42;88.06;99181.36;1790851;79;21540;-67
2021/04/04 06:03:16;;;;;;;8.75;3.60;;;;;;;3.49;87.19;99175.06;1823255;78;21544;-70
2021/04/04 06:06:17;;;;;;;4.60;3.27;;;;;;;3.58;87.25;99184.25;1818361;78;21143;-69
2021/04/04 06:08:57;;;;;;;5.90;3.62;;;;;;;3.70;86.38;99191.52;1808038;78;21560;-71
2021/04/04 06:11:32;;;;;;;8.33;4.30;;;;;;;3.79;86.06;99195.28;1807110;79;21614;-78
2021/04/04 06:14:14;;;;;;;6.85;3.80;;;;;;;3.89;85.93;99191.70;1778490;80;21184;-74
2021/04/04 06:16:55;;;;;;;5.55;3.98;;;;;;;4.02;85.40;99185.64;1743290;79;21169;-71
2021/04/04 06:19:41;;;;;;;11.63;4.78;;;;;;;4.15;85.11;99187.70;1774798;80;21182;-71
2021/04/04 06:22:36;;;;;;;6.72;4.55;;;;;;;4.30;84.94;99191.67;1809367;79;21091;-71
2021/04/04 06:25:28;;;;;;;7.22;4.28;;;;;;;4.46;83.67;99198.36;1786997;80;21117;-72
2021/04/04 06:28:10;;;;;;;7.25;3.95;;;;;;;4.59;83.68;99195.80;1787324;79;21375;-71
2021/04/04 06:30:54;;;;;;;8.95;3.47;;;;;;;4.79;82.93;99193.97;1873623;75;22832;-79
2021/04/04 06:33:38;;;;;;;7.05;4.20;;;;;;;4.86;82.41;99184.92;1841782;78;21529;-78
2021/04/04 06:36:36;;;;;;;6.85;4.33;;;;;;;4.97;82.33;99191.34;1839652;78;21283;-76
2021/04/04 06:39:32;;;;;;;14.10;5.72;;;;;;;5.23;80.05;99196.49;1841693;78;21066;-74
2021/04/04 06:42:09;;;;;;;5.58;3.70;;;;;;;5.23;80.05;99196.49;1798270;78;21584;-83
2021/04/04 06:45:03;;;;;;;9.63;5.08;;;;;;;5.34;79.95;99197.19;1841356;77;21011;-74
2021/04/04 06:47:54;;;;;;;7.45;4.00;;;;;;;5.41;79.17;99204.45;1815465;79;21016;-72
2021/04/04 06:50:36;;;;;;;9.65;4.45;;;;;;;5.46;77.92;99205.21;1873743;76;22631;-74
2021/04/04 06:53:31;;;;;;;6.97;4.60;;;;;;;5.42;77.67;99204.72;1841702;78;20921;-77
2021/04/04 06:56:44;;;;;;;9.78;5.00;;;;;;;5.46;77.77;99208.48;1841403;78;21017;-75
2021/04/04 06:59:32;;;;;;;7.37;3.87;;;;;;;5.56;77.68;99209.73;1841763;78;21581;-73
2021/04/04 07:02:07;;;;;;;5.83;3.75;;;;;;;5.65;76.72;99214.80;1841769;78;20917;-74
2021/04/04 07:04:53;;;;;;;7.95;4.47;;;;;;;5.78;76.48;99212.69;1808647;79;20988;-76
2021/04/04 07:07:53;;;;;;;6.50;3.58;;;;;;;5.92;75.50;99214.98;1808614;79;21043;-75
2021/04/04 07:10:46;;;;;;;4.62;3.10;;;;;;;6.08;74.59;99218.87;1808649;79;21791;-75
2021/04/04 07:13:22;;;;;;;6.77;3.90;;;;;;;6.25;74.19;99219.17;1808854;78;20964;-78
2021/04/04 07:16:49;;;;;;;8.20;4.17;;;;;;;6.79;72.82;99210.38;1808138;78;21039;-74
2021/04/04 07:19:40;;;;;;;11.30;4.75;;;;;;;6.79;72.82;99210.38;1803414;79;20887;-75
2021/04/04 07:22:39;;;;;;;8.73;4.67;;;;;;;7.00;70.15;99212.73;1797515;78;21554;-73
2021/04/04 07:25:41;;;;;;;8.53;5.30;;;;;;;7.18;68.89;99209.13;1793883;79;21193;-72
2021/04/04 07:28:27;;;;;;;10.95;5.33;;;;;;;7.42;68.43;99213.05;1803792;79;20958;-75
2021/04/04 07:30:58;;;;;;;6.60;4.10;;;;;;;7.52;67.44;99214.19;1780845;79;21141;-73
2021/04/04 07:33:45;;;;;;;7.50;4.58;;;;;;;7.70;66.54;99217.37;1798563;79;21118;-74
2021/04/04 07:36:29;;;;;;;5.05;3.90;;;;;;;8.03;66.18;99218.04;1799096;79;21140;-75
2021/04/04 07:39:38;;;;;;;5.22;3.62;;;;;;;8.62;64.92;99213.97;1725470;83;22198;-74
2021/04/04 07:42:40;;;;;;;5.58;3.62;;;;;;;9.23;62.33;99210.47;1711611;82;21041;-71
2021/04/04 07:45:29;;;;;;;5.70;3.65;;;;;;;9.48;59.55;99208.94;1724268;81;20982;-73
2021/04/04 07:48:22;;;;;;;5.65;3.15;;;;;;;9.64;59.10;99214.80;1748004;82;21061;-71
2021/04/04 07:51:12;;;;;;;10.32;4.08;;;;;;;10.10;59.01;99213.69;1755311;81;20934;-72
2021/04/04 07:53:46;;;;;;;6.05;4.12;;;;;;;10.32;55.86;99216.09;1749334;81;21206;-69
2021/04/04 07:56:21;;;;;;;6.85;2.98;;;;;;;10.10;56.13;99214.25;1748767;81;21001;-70
2021/04/04 07:59:19;;;;;;;5.92;3.80;;;;;;;9.77;56.13;99220.17;1714088;82;21025;-69
2021/04/04 08:02:13;;;;;;;6.70;4.37;;;;;;;9.39;56.37;99216.31;1742213;81;21037;-70
2021/04/04 08:04:56;;;;;;;9.30;4.33;;;;;;;9.23;57.66;99225.53;1731709;82;21484;-69
2021/04/04 08:07:42;;;;;;;7.17;4.60;;;;;;;9.30;58.31;99224.49;1732252;82;21447;-69
2021/04/04 08:10:55;;;;;;;7.85;4.42;;;;;;;9.34;57.75;99221.38;1743567;81;21160;-70
2021/04/04 08:14:21;;;;;;;6.30;4.08;;;;;;;9.21;58.39;99219.00;1733133;82;21112;-69
2021/04/04 08:16:58;;;;;;;7.70;4.33;;;;;;;8.91;58.60;99222.52;1717668;83;21166;-69
2021/04/04 08:19:26;;;;;;;8.30;4.40;;;;;;;8.50;59.94;99222.17;1733833;82;21142;-72
2021/04/04 08:22:17;;;;;;;10.95;4.83;;;;;;;8.28;60.47;99222.92;1740286;81;21238;-72
2021/04/04 08:24:50;;;;;;;9.60;4.42;;;;;;;8.26;61.55;99218.31;1726247;81;21601;-71
2021/04/04 08:27:25;;;;;;;7.00;3.72;;;;;;;8.59;60.94;99217.58;1732469;81;20934;-70
2021/04/04 08:30:17;;;;;;;5.60;4.00;;;;;;;9.13;59.22;99215.66;1740854;81;21239;-71
2021/04/04 08:32:56;;;;;;;7.40;4.25;;;;;;;9.64;57.64;99205.21;1720961;81;21112;-72
2021/04/04 08:35:31;;;;;;;8.15;4.80;;;;;;;10.17;55.56;99198.94;1737673;81;21636;-71
2021/04/04 08:38:13;;;;;;;9.03;4.80;;;;;;;10.84;54.38;99201.75;1734695;81;20993;-72
2021/04/04 08:40:41;;;;;;;5.95;4.42;;;;;;;11.40;54.06;99202.55;1734909;81;28739;-72
2021/04/04 08:43:09;;;;;;;8.43;4.53;;;;;;;11.49;50.49;99195.88;1717457;81;21155;-72
2021/04/04 08:45:58;;;;;;;7.17;4.80;;;;;;;11.20;50.64;99200.75;1731420;81;21120;-72
2021/04/04 08:48:27;;;;;;;9.18;4.78;;;;;;;10.75;49.88;99208.63;1735207;81;21145;-72
2021/04/04 08:50:57;;;;;;;19.15;5.83;;;;;;;10.34;51.30;99209.15;1737267;81;21523;-72
2021/04/04 08:53:31;;;;;;;10.03;5.40;;;;;;;10.04;51.03;99208.11;1740591;81;21544;-72
2021/04/04 08:55:59;;;;;;;8.58;4.90;;;;;;;9.87;52.21;99203.40;1741352;81;21041;-72
2021/04/04 08:58:41;;;;;;;9.83;4.30;;;;;;;10.15;51.29;99199.02;1730280;81;21094;-72
2021/04/04 09:01:20;;;;;;;9.03;4.17;;;;;;;10.35;51.43;99209.39;1734320;82;21151;-73
2021/04/04 09:03:56;;;;;;;8.20;4.80;;;;;;;10.32;51.36;99209.23;1722253;83;20954;-77
2021/04/04 09:06:23;;;;;;;9.63;5.10;;;;;;;10.07;51.32;99202.55;1704500;81;21167;-74
2021/04/04 09:08:51;;;;;;;6.92;4.50;;;;;;;9.86;51.38;99201.78;1757565;81;21132;-79
2021/04/04 09:11:18;;;;;;;7.47;4.25;;;;;;;10.09;51.42;99203.04;1757617;81;21155;-81
2021/04/04 09:13:47;;;;;;;7.42;3.90;;;;;;;10.67;50.43;99202.58;1753392;81;20938;-73
2021/04/04 09:16:15;;;;;;;5.55;3.42;;;;;;;11.39;47.29;99194.88;1757643;81;21501;-73
2021/04/04 09:18:48;;;;;;;7.03;3.87;;;;;;;11.96;45.18;99193.06;1757979;81;20981;-74
2021/04/04 09:21:16;;;;;;;9.65;3.92;;;;;;;12.37;44.79;99185.37;1757881;81;21072;-74
2021/04/04 09:23:45;;;;;;;5.53;2.92;;;;;;;12.35;44.49;99189.03;1734586;81;21007;-71
2021/04/04 09:26:18;;;;;;;5.80;3.37;;;;;;;12.06;45.37;99187.73;1753315;81;21212;-71
2021/04/04 09:28:48;;;;;;;4.97;2.75;;;;;;;11.53;45.87;99189.97;1753305;81;20975;-74
2021/04/04 09:31:31;;;;;;;8.28;3.10;;;;;;;10.78;46.73;99183.83;1753329;81;20909;-75
2021/04/04 09:34:04;;;;;;;4.65;2.90;;;;;;;10.16;48.73;99194.58;1753463;81;20956;-73
2021/04/04 09:36:50;;;;;;;9.73;5.28;;;;;;;9.81;50.44;99188.25;1753721;81;21014;-72
2021/04/04 09:39:27;;;;;;;10.13;6.45;;;;;;;9.79;51.08;99191.88;1748977;81;22267;-76
2021/04/04 09:41:56;;;;;;;9.23;5.45;;;;;;;9.99;52.18;99197.86;1723917;82;21144;-78
2021/04/04 09:44:31;;;;;;;10.85;5.25;;;;;;;10.10;52.60;99197.80;1699854;82;21043;-75
2021/04/04 09:47:00;;;;;;;9.05;4.62;;;;;;;10.44;52.67;99192.34;1736820;81;21114;-73
2021/04/04 09:49:33;;;;;;;8.45;4.95;;;;;;;10.69;51.17;99194.83;1730350;82;20917;-73
2021/04/04 09:52:27;;;;;;;8.15;4.67;;;;;;;10.73;49.77;99185.37;1736296;81;22255;-73
2021/04/04 09:55:08;;;;;;;10.28;4.28;;;;;;;10.55;49.46;99185.39;1734245;81;21156;-79
2021/04/04 09:57:43;;;;;;;;;;;;;;;10.23;49.23;99183.16;1733490;81;21143;-74
2021/04/04 10:00:26;;;;;;;7.00;4.17;;;;;;;9.98;49.97;99185.28;1735099;81;20224;-73
2021/04/04 10:03:12;;;;;;;7.85;4.08;;;;;;;9.62;50.38;99182.23;1732616;81;21167;-73
2021/04/04 10:05:43;;;;;;;5.90;4.53;;;;;;;9.32;51.11;99183.09;1734386;81;22689;-74
2021/04/04 10:08:15;;;;;;;7.50;4.90;;;;;;;9.19;51.66;99189.75;1734622;81;21041;-75
2021/04/04 10:10:47;;;;;;;10.43;4.15;;;;;;;9.30;51.93;99180.66;1734937;81;21025;-76
2021/04/04 10:13:16;;;;;;;6.28;3.72;;;;;;;9.49;51.13;99183.97;1734977;81;21086;-75
2021/04/04 10:15:48;;;;;;;5.40;3.67;;;;;;;9.61;50.46;99190.21;1739257;81;21162;-75
2021/04/04 10:18:17;;;;;;;8.18;4.40;;;;;;;9.57;50.56;99187.30;1752269;81;22338;-72
2021/04/04 10:20:56;;;;;;;7.42;4.28;;;;;;;9.55;49.73;99186.81;1739888;81;21549;-72
2021/04/04 10:23:31;;;;;;;6.35;3.67;;;;;;;9.49;49.32;99188.64;1736990;82;21584;-73
2021/04/04 10:26:05;;;;;;;7.85;4.60;;;;;;;9.36;49.06;99182.14;1737144;82;20960;-73
2021/04/04 10:29:01;;;;;;;5.67;3.17;;;;;;;9.56;49.33;99184.31;1737127;82;21070;-73
2021/04/04 10:31:25;;;;;;;6.20;3.83;;;;;;;10.12;48.40;99181.83;1748938;81;21533;-73
2021/04/04 10:34:01;;;;;;;10.95;5.62;;;;;;;10.85;46.65;99180.03;1742265;81;21109;-73
2021/04/04 10:36:29;;;;;;;5.53;4.10;;;;;;;11.48;45.77;99167.35;1756534;81;21524;-73
2021/04/04 10:38:58;;;;;;;8.75;4.30;;;;;;;12.07;44.16;99170.09;1756368;81;21559;-73
2021/04/04 10:41:30;;;;;;;4.10;2.98;;;;;;;12.54;43.46;99171.47;1756418;81;21121;-73
2021/04/04 10:43:58;;;;;;;6.28;3.90;;;;;;;12.71;40.63;99169.09;1756412;81;21369;-73
2021/04/04 10:46:35;;;;;;;6.87;4.60;;;;;;;12.83;41.49;99160.88;1764780;81;21140;-73
2021/04/04 10:49:04;;;;;;;7.12;3.95;;;;;;;13.32;40.72;99171.20;1736754;82;21130;-73
2021/04/04 10:51:32;;;;;;;4.83;3.22;;;;;;;13.81;41.60;99170.66;1757475;81;21133;-73
2021/04/04 10:54:00;;;;;;;8.00;4.05;;;;;;;14.07;37.69;99166.91;1736474;81;21188;-73
2021/04/04 10:56:29;;;;;;;7.12;3.83;;;;;;;14.19;38.50;99171.61;1761458;81;22395;-73
2021/04/04 10:58:59;;;;;;;6.20;4.12;;;;;;;14.40;36.28;99172.83;1760861;81;21167;-73
2021/04/04 11:01:33;;;;;;;4.65;3.10;;;;;;;14.52;36.73;99163.12;1732169;81;21576;-73
2021/04/04 11:04:01;;;;;;;3.70;2.50;;;;;;;14.56;33.50;99166.78;1753238;80;21180;-74
2021/04/04 11:06:30;;;;;;;3.70;2.25;;;;;;;14.51;34.25;99158.17;1730522;82;21610;-73
2021/04/04 11:08:59;;;;;;;4.17;2.95;;;;;;;14.77;34.76;99156.91;1757928;81;20998;-73
2021/04/04 11:11:27;;;;;;;7.97;3.58;;;;;;;14.84;33.48;99145.48;1760260;81;21223;-74
2021/04/04 11:13:55;;;;;;;4.17;2.45;;;;;;;14.43;32.13;99151.44;1753769;81;21035;-73
2021/04/04 11:16:25;;;;;;;14.87;6.83;;;;;;;13.76;32.66;99155.14;1728163;82;21186;-73
2021/04/04 11:18:56;;;;;;;11.55;6.80;;;;;;;13.10;34.07;99147.05;1753125;81;21051;-73
2021/04/04 11:21:38;;;;;;;5.83;2.80;;;;;;;12.64;34.71;99144.66;1753717;81;21491;-74
2021/04/04 11:24:16;;;;;;;6.97;3.00;;;;;;;12.11;35.60;99141.58;1686152;83;27185;-74
2021/04/04 11:26:54;;;;;;;6.08;3.83;;;;;;;11.80;37.13;99152.95;1727263;82;21620;-73
2021/04/04 11:29:24;;;;;;;12.20;6.95;;;;;;;11.62;37.69;99159.66;1736355;81;21205;-75
2021/04/04 11:31:56;;;;;;;16.55;8.43;;;;;;;11.36;41.25;99159.00;1737212;81;21141;-74
2021/04/04 11:34:38;;;;;;;11.63;6.33;;;;;;;10.87;42.71;99161.28;1732219;82;21245;-74
2021/04/04 11:37:13;;;;;;;11.10;6.10;;;;;;;10.62;44.60;99159.39;1749342;81;21092;-74
2021/04/04 11:40:04;;;;;;;9.23;5.95;;;;;;;10.84;45.21;99152.33;1758469;81;21560;-74
2021/04/04 11:42:32;;;;;;;9.23;5.42;;;;;;;11.42;45.14;99148.06;1760455;80;21158;-74
2021/04/04 11:45:00;;;;;;;11.35;5.10;;;;;;;12.32;46.09;99142.91;1757453;81;21059;-76
2021/04/04 11:47:27;;;;;;;7.83;4.78;;;;;;;13.15;42.24;99138.56;1728001;81;22393;-75
2021/04/04 11:49:56;;;;;;;7.15;4.87;;;;;;;13.55;39.72;99135.15;1756947;81;21019;-79
2021/04/04 11:52:29;;;;;;;8.88;5.20;;;;;;;13.85;40.26;99141.22;1753149;81;20993;-77
2021/04/04 11:54:58;;;;;;;7.60;4.80;;;;;;;14.18;39.02;99143.77;1723238;81;20957;-76
2021/04/04 11:57:33;;;;;;;5.85;4.62;;;;;;;14.25;37.93;99142.61;1760383;81;21132;-76
2021/04/04 12:00:15;;;;;;;9.45;5.35;;;;;;;13.95;38.33;99144.05;1757941;81;22283;-79
2021/04/04 12:02:58;;;;;;;9.43;5.72;;;;;;;13.59;39.66;99142.96;1758188;81;21009;-78
2021/04/04 12:05:21;;;;;;;17.40;8.53;;;;;;;13.19;40.65;99144.23;1748585;81;21083;-78
2021/04/04 12:07:57;;;;;;;21.52;9.48;;;;;;;12.59;42.47;99147.63;1726362;81;21084;-77
2021/04/04 12:10:30;;;;;;;16.02;6.65;;;;;;;12.21;43.98;99141.71;1757861;81;21080;-77